sensor_id;sensor_type;location;lat;lon;timestamp;temperature;humidity
25554;DHT22;13446;50.926;5.332;2023-04-01T00:00:42;11.10;99.90
25554;DHT22;13446;50.926;5.332;2023-04-01T00:03:07;11.00;99.90
25554;DHT22;13446;50.926;5.332;2023-04-01T00:05:33;11.00;99.90
25554;DHT22;13446;50.926;5.332;2023-04-01T00:07:58;11.10;99.90
25554;DHT22;13446;50.926;5.332;2023-04-01T00:10:24;11.00;99.90
25554;DHT22;13446;50.926;5.332;2023-04-01T00:12:50;11.00;99.90
25554;DHT22;13446;50.926;5.332;2023-04-01T00:15:15;10.90;99.90
25554;DHT22;13446;50.926;5.332;2023-04-01T00:17:41;10.80;99.90
25554;DHT22;13446;50.926;5.332;2023-04-01T00:20:06;10.70;99.90
25554;DHT22;13446;50.926;5.332;2023-04-01T00:22:33;10.80;99.90
25554;DHT22;13446;50.926;5.332;2023-04-01T00:24:59;10.80;99.90
25554;DHT22;13446;50.926;5.332;2023-04-01T00:27:25;10.90;99.90
25554;DHT22;13446;50.926;5.332;2023-04-01T00:29:51;10.80;99.90
25554;DHT22;13446;50.926;5.332;2023-04-01T00:32:17;10.90;99.90
25554;DHT22;13446;50.926;5.332;2023-04-01T00:34:42;10.90;99.90
25554;DHT22;13446;50.926;5.332;2023-04-01T00:37:09;11.00;99.90
25554;DHT22;13446;50.926;5.332;2023-04-01T00:39:35;11.00;99.90
25554;DHT22;13446;50.926;5.332;2023-04-01T00:42:01;11.00;99.90
25554;DHT22;13446;50.926;5.332;2023-04-01T00:44:28;11.00;99.90
25554;DHT22;13446;50.926;5.332;2023-04-01T00:46:55;11.00;99.90
25554;DHT22;13446;50.926;5.332;2023-04-01T00:49:22;11.00;99.90
25554;DHT22;13446;50.926;5.332;2023-04-01T00:51:50;11.00;99.90
25554;DHT22;13446;50.926;5.332;2023-04-01T00:54:17;10.90;99.90
25554;DHT22;13446;50.926;5.332;2023-04-01T00:56:48;11.00;99.90
25554;DHT22;13446;50.926;5.332;2023-04-01T00:59:25;11.00;99.90
25554;DHT22;13446;50.926;5.332;2023-04-01T01:01:50;11.00;99.90
25554;DHT22;13446;50.926;5.332;2023-04-01T01:04:29;11.00;99.90
25554;DHT22;13446;50.926;5.332;2023-04-01T01:12:36;11.00;99.90
25554;DHT22;13446;50.926;5.332;2023-04-01T01:17:37;10.90;99.90
25554;DHT22;13446;50.926;5.332;2023-04-01T01:27:46;11.00;99.90
25554;DHT22;13446;50.926;5.332;2023-04-01T01:32:48;11.00;99.90
25554;DHT22;13446;50.926;5.332;2023-04-01T01:38:13;11.00;99.90
25554;DHT22;13446;50.926;5.332;2023-04-01T01:40:40;11.10;99.90
25554;DHT22;13446;50.926;5.332;2023-04-01T01:43:08;11.00;99.90
25554;DHT22;13446;50.926;5.332;2023-04-01T01:45:35;11.10;99.90
25554;DHT22;13446;50.926;5.332;2023-04-01T01:48:02;11.10;99.90
25554;DHT22;13446;50.926;5.332;2023-04-01T01:50:30;11.00;99.90
25554;DHT22;13446;50.926;5.332;2023-04-01T01:53:00;11.10;99.90
25554;DHT22;13446;50.926;5.332;2023-04-01T01:55:31;11.10;99.90
25554;DHT22;13446;50.926;5.332;2023-04-01T01:58:02;11.10;99.90
25554;DHT22;13446;50.926;5.332;2023-04-01T02:00:30;11.10;99.90
25554;DHT22;13446;50.926;5.332;2023-04-01T02:02:56;11.10;99.90
25554;DHT22;13446;50.926;5.332;2023-04-01T02:05:25;11.10;99.90
25554;DHT22;13446;50.926;5.332;2023-04-01T02:07:57;11.00;99.90
25554;DHT22;13446;50.926;5.332;2023-04-01T02:10:25;11.00;99.90
25554;DHT22;13446;50.926;5.332;2023-04-01T02:12:53;11.00;99.90
25554;DHT22;13446;50.926;5.332;2023-04-01T02:15:19;11.00;99.90
25554;DHT22;13446;50.926;5.332;2023-04-01T02:17:45;11.00;99.90
25554;DHT22;13446;50.926;5.332;2023-04-01T02:20:15;11.00;99.90
25554;DHT22;13446;50.926;5.332;2023-04-01T02:22:53;11.00;99.90
25554;DHT22;13446;50.926;5.332;2023-04-01T02:25:23;11.10;99.90
25554;DHT22;13446;50.926;5.332;2023-04-01T02:27:50;11.00;99.90
25554;DHT22;13446;50.926;5.332;2023-04-01T02:30:17;11.10;99.90
25554;DHT22;13446;50.926;5.332;2023-04-01T02:32:42;11.10;99.90
25554;DHT22;13446;50.926;5.332;2023-04-01T02:35:09;11.00;99.90
25554;DHT22;13446;50.926;5.332;2023-04-01T02:37:36;11.10;99.90
25554;DHT22;13446;50.926;5.332;2023-04-01T02:40:02;11.10;99.90
25554;DHT22;13446;50.926;5.332;2023-04-01T02:42:28;11.10;99.90
25554;DHT22;13446;50.926;5.332;2023-04-01T02:44:54;11.10;99.90
25554;DHT22;13446;50.926;5.332;2023-04-01T02:47:20;11.30;99.90
25554;DHT22;13446;50.926;5.332;2023-04-01T02:49:45;11.30;99.90
25554;DHT22;13446;50.926;5.332;2023-04-01T02:52:11;11.30;99.90
25554;DHT22;13446;50.926;5.332;2023-04-01T02:54:36;11.20;99.90
25554;DHT22;13446;50.926;5.332;2023-04-01T02:57:02;11.20;99.90
25554;DHT22;13446;50.926;5.332;2023-04-01T02:59:27;11.20;99.90
25554;DHT22;13446;50.926;5.332;2023-04-01T03:01:53;11.20;99.90
25554;DHT22;13446;50.926;5.332;2023-04-01T03:04:18;11.10;99.90
25554;DHT22;13446;50.926;5.332;2023-04-01T03:06:44;11.20;99.90
25554;DHT22;13446;50.926;5.332;2023-04-01T03:09:09;11.20;99.90
25554;DHT22;13446;50.926;5.332;2023-04-01T03:11:35;11.10;99.90
25554;DHT22;13446;50.926;5.332;2023-04-01T03:14:01;11.10;99.90
25554;DHT22;13446;50.926;5.332;2023-04-01T03:16:27;11.20;99.90
25554;DHT22;13446;50.926;5.332;2023-04-01T03:18:53;11.20;99.90
25554;DHT22;13446;50.926;5.332;2023-04-01T03:21:23;11.20;99.90
25554;DHT22;13446;50.926;5.332;2023-04-01T03:23:49;11.10;99.90
25554;DHT22;13446;50.926;5.332;2023-04-01T03:26:15;11.10;99.90
25554;DHT22;13446;50.926;5.332;2023-04-01T03:28:40;11.00;99.90
25554;DHT22;13446;50.926;5.332;2023-04-01T03:31:06;11.00;99.90
25554;DHT22;13446;50.926;5.332;2023-04-01T03:33:32;10.90;99.90
25554;DHT22;13446;50.926;5.332;2023-04-01T03:35:57;10.90;99.90
25554;DHT22;13446;50.926;5.332;2023-04-01T03:38:23;10.90;99.90
25554;DHT22;13446;50.926;5.332;2023-04-01T03:40:48;10.90;99.90
25554;DHT22;13446;50.926;5.332;2023-04-01T03:43:14;10.90;99.90
25554;DHT22;13446;50.926;5.332;2023-04-01T03:45:45;11.10;99.90
25554;DHT22;13446;50.926;5.332;2023-04-01T03:48:10;11.20;99.90
25554;DHT22;13446;50.926;5.332;2023-04-01T03:50:36;11.20;99.90
25554;DHT22;13446;50.926;5.332;2023-04-01T03:53:02;11.20;99.90
25554;DHT22;13446;50.926;5.332;2023-04-01T03:55:27;11.20;99.90
25554;DHT22;13446;50.926;5.332;2023-04-01T03:57:53;11.20;99.90
25554;DHT22;13446;50.926;5.332;2023-04-01T04:00:18;11.20;99.90
25554;DHT22;13446;50.926;5.332;2023-04-01T04:02:44;11.30;99.90
25554;DHT22;13446;50.926;5.332;2023-04-01T04:05:10;11.30;99.90
25554;DHT22;13446;50.926;5.332;2023-04-01T04:07:36;11.20;99.90
25554;DHT22;13446;50.926;5.332;2023-04-01T04:10:02;11.10;99.90
25554;DHT22;13446;50.926;5.332;2023-04-01T04:12:27;11.00;99.90
25554;DHT22;13446;50.926;5.332;2023-04-01T04:14:53;11.00;99.90
25554;DHT22;13446;50.926;5.332;2023-04-01T04:17:19;11.00;99.90
25554;DHT22;13446;50.926;5.332;2023-04-01T04:19:44;11.00;99.90
25554;DHT22;13446;50.926;5.332;2023-04-01T04:22:10;11.00;99.90
25554;DHT22;13446;50.926;5.332;2023-04-01T04:24:35;10.90;99.90
25554;DHT22;13446;50.926;5.332;2023-04-01T04:27:01;10.80;99.90
25554;DHT22;13446;50.926;5.332;2023-04-01T04:29:27;10.90;99.90
25554;DHT22;13446;50.926;5.332;2023-04-01T04:31:52;10.90;99.90
25554;DHT22;13446;50.926;5.332;2023-04-01T04:34:18;11.00;99.90
25554;DHT22;13446;50.926;5.332;2023-04-01T04:36:44;11.00;99.90
25554;DHT22;13446;50.926;5.332;2023-04-01T04:39:09;10.90;99.90
25554;DHT22;13446;50.926;5.332;2023-04-01T04:41:36;10.90;99.90
25554;DHT22;13446;50.926;5.332;2023-04-01T04:44:02;10.90;99.90
25554;DHT22;13446;50.926;5.332;2023-04-01T04:46:28;11.00;99.90
25554;DHT22;13446;50.926;5.332;2023-04-01T04:48:54;11.00;99.90
25554;DHT22;13446;50.926;5.332;2023-04-01T04:51:19;10.90;99.90
25554;DHT22;13446;50.926;5.332;2023-04-01T04:53:45;11.00;99.90
25554;DHT22;13446;50.926;5.332;2023-04-01T04:56:11;10.90;99.90
25554;DHT22;13446;50.926;5.332;2023-04-01T04:58:37;10.90;99.90
25554;DHT22;13446;50.926;5.332;2023-04-01T05:01:07;10.80;99.90
25554;DHT22;13446;50.926;5.332;2023-04-01T05:03:33;10.80;99.90
25554;DHT22;13446;50.926;5.332;2023-04-01T05:05:58;10.80;99.90
25554;DHT22;13446;50.926;5.332;2023-04-01T05:08:24;10.80;99.90
25554;DHT22;13446;50.926;5.332;2023-04-01T05:10:49;10.70;99.90
25554;DHT22;13446;50.926;5.332;2023-04-01T05:13:15;10.70;99.90
25554;DHT22;13446;50.926;5.332;2023-04-01T05:15:40;10.70;99.90
25554;DHT22;13446;50.926;5.332;2023-04-01T05:18:06;10.70;99.90
25554;DHT22;13446;50.926;5.332;2023-04-01T05:20:32;10.80;99.90
25554;DHT22;13446;50.926;5.332;2023-04-01T05:22:58;10.90;99.90
25554;DHT22;13446;50.926;5.332;2023-04-01T05:25:23;11.00;99.90
25554;DHT22;13446;50.926;5.332;2023-04-01T05:27:49;10.90;99.90
25554;DHT22;13446;50.926;5.332;2023-04-01T05:30:14;10.90;99.90
25554;DHT22;13446;50.926;5.332;2023-04-01T05:32:40;10.90;99.90
25554;DHT22;13446;50.926;5.332;2023-04-01T05:35:06;10.90;99.90
25554;DHT22;13446;50.926;5.332;2023-04-01T05:37:33;11.00;99.90
25554;DHT22;13446;50.926;5.332;2023-04-01T05:39:59;11.00;99.90
25554;DHT22;13446;50.926;5.332;2023-04-01T05:42:24;11.00;99.90
25554;DHT22;13446;50.926;5.332;2023-04-01T05:44:50;11.00;99.90
25554;DHT22;13446;50.926;5.332;2023-04-01T05:47:15;11.00;99.90
25554;DHT22;13446;50.926;5.332;2023-04-01T05:49:41;11.00;99.90
25554;DHT22;13446;50.926;5.332;2023-04-01T05:52:07;10.80;99.90
25554;DHT22;13446;50.926;5.332;2023-04-01T05:54:32;10.90;99.90
25554;DHT22;13446;50.926;5.332;2023-04-01T05:56:58;10.80;99.90
25554;DHT22;13446;50.926;5.332;2023-04-01T05:59:23;10.80;99.90
25554;DHT22;13446;50.926;5.332;2023-04-01T06:01:49;10.90;99.90
25554;DHT22;13446;50.926;5.332;2023-04-01T06:04:16;10.90;99.90
25554;DHT22;13446;50.926;5.332;2023-04-01T06:06:42;10.90;99.90
25554;DHT22;13446;50.926;5.332;2023-04-01T06:09:12;11.10;99.90
25554;DHT22;13446;50.926;5.332;2023-04-01T06:17:08;11.20;99.90
25554;DHT22;13446;50.926;5.332;2023-04-01T06:19:46;11.10;99.90
25554;DHT22;13446;50.926;5.332;2023-04-01T06:22:31;11.00;99.90
25554;DHT22;13446;50.926;5.332;2023-04-01T06:30:24;10.90;99.90
25554;DHT22;13446;50.926;5.332;2023-04-01T06:45:55;11.10;99.90
25554;DHT22;13446;50.926;5.332;2023-04-01T06:53:30;11.00;99.90
25554;DHT22;13446;50.926;5.332;2023-04-01T06:56:05;11.00;99.90
25554;DHT22;13446;50.926;5.332;2023-04-01T06:58:34;11.10;99.90
25554;DHT22;13446;50.926;5.332;2023-04-01T07:01:03;10.90;99.90
25554;DHT22;13446;50.926;5.332;2023-04-01T07:03:33;11.00;99.90
25554;DHT22;13446;50.926;5.332;2023-04-01T07:06:03;10.90;99.90
25554;DHT22;13446;50.926;5.332;2023-04-01T07:08:29;11.00;99.90
25554;DHT22;13446;50.926;5.332;2023-04-01T07:10:57;11.20;99.90
25554;DHT22;13446;50.926;5.332;2023-04-01T07:14:13;11.10;99.90
25554;DHT22;13446;50.926;5.332;2023-04-01T07:21:22;11.30;99.90
25554;DHT22;13446;50.926;5.332;2023-04-01T07:23:48;11.20;99.90
25554;DHT22;13446;50.926;5.332;2023-04-01T07:26:20;11.10;99.90
25554;DHT22;13446;50.926;5.332;2023-04-01T07:28:46;11.10;99.90
25554;DHT22;13446;50.926;5.332;2023-04-01T07:31:33;11.20;99.90
25554;DHT22;13446;50.926;5.332;2023-04-01T07:36:33;11.40;99.90
25554;DHT22;13446;50.926;5.332;2023-04-01T07:44:14;11.20;99.90
25554;DHT22;13446;50.926;5.332;2023-04-01T07:49:29;11.30;99.90
25554;DHT22;13446;50.926;5.332;2023-04-01T07:54:44;11.10;99.90
25554;DHT22;13446;50.926;5.332;2023-04-01T07:57:27;11.20;99.90
25554;DHT22;13446;50.926;5.332;2023-04-01T08:00:10;11.30;99.90
25554;DHT22;13446;50.926;5.332;2023-04-01T08:15:20;11.30;99.90
25554;DHT22;13446;50.926;5.332;2023-04-01T08:23:07;11.40;99.90
25554;DHT22;13446;50.926;5.332;2023-04-01T08:25:37;11.60;99.90
25554;DHT22;13446;50.926;5.332;2023-04-01T08:30:43;11.60;99.90
25554;DHT22;13446;50.926;5.332;2023-04-01T08:33:20;11.60;99.90
25554;DHT22;13446;50.926;5.332;2023-04-01T08:35:49;11.50;99.90
25554;DHT22;13446;50.926;5.332;2023-04-01T08:38:39;11.50;99.90
25554;DHT22;13446;50.926;5.332;2023-04-01T08:49:09;11.70;99.90
25554;DHT22;13446;50.926;5.332;2023-04-01T08:51:43;11.90;99.90
25554;DHT22;13446;50.926;5.332;2023-04-01T09:04:21;12.30;99.90
25554;DHT22;13446;50.926;5.332;2023-04-01T09:22:21;12.40;99.90
25554;DHT22;13446;50.926;5.332;2023-04-01T09:27:52;12.20;99.90
25554;DHT22;13446;50.926;5.332;2023-04-01T09:46:43;13.20;99.90
25554;DHT22;13446;50.926;5.332;2023-04-01T09:49:45;13.60;99.90
25554;DHT22;13446;50.926;5.332;2023-04-01T10:28:02;13.80;99.90
25554;DHT22;13446;50.926;5.332;2023-04-01T10:44:18;13.60;99.90
25554;DHT22;13446;50.926;5.332;2023-04-01T10:59:32;13.60;99.90
25554;DHT22;13446;50.926;5.332;2023-04-01T11:41:56;13.00;99.90
25554;DHT22;13446;50.926;5.332;2023-04-01T11:44:27;13.00;99.90
25554;DHT22;13446;50.926;5.332;2023-04-01T11:52:15;13.10;99.90
25554;DHT22;13446;50.926;5.332;2023-04-01T11:54:56;12.90;99.90
25554;DHT22;13446;50.926;5.332;2023-04-01T12:02:47;12.70;99.90
25554;DHT22;13446;50.926;5.332;2023-04-01T12:13:29;13.00;99.90
25554;DHT22;13446;50.926;5.332;2023-04-01T12:26:18;13.50;99.90
25554;DHT22;13446;50.926;5.332;2023-04-01T12:33:51;13.30;99.90
25554;DHT22;13446;50.926;5.332;2023-04-01T12:36:25;13.10;99.90
25554;DHT22;13446;50.926;5.332;2023-04-01T12:41:39;13.00;99.90
25554;DHT22;13446;50.926;5.332;2023-04-01T12:59:45;13.00;99.90
25554;DHT22;13446;50.926;5.332;2023-04-01T13:12:29;13.00;99.90
25554;DHT22;13446;50.926;5.332;2023-04-01T13:15:16;13.00;99.90
25554;DHT22;13446;50.926;5.332;2023-04-01T13:23:03;13.20;99.90
25554;DHT22;13446;50.926;5.332;2023-04-01T13:25:39;13.20;99.90
25554;DHT22;13446;50.926;5.332;2023-04-01T13:28:18;13.40;99.90
25554;DHT22;13446;50.926;5.332;2023-04-01T13:30:49;13.40;99.90
25554;DHT22;13446;50.926;5.332;2023-04-01T13:33:36;13.40;99.90
25554;DHT22;13446;50.926;5.332;2023-04-01T13:38:51;13.50;99.90
25554;DHT22;13446;50.926;5.332;2023-04-01T13:44:28;13.20;99.90
25554;DHT22;13446;50.926;5.332;2023-04-01T13:53:26;13.20;99.90
25554;DHT22;13446;50.926;5.332;2023-04-01T13:55:31;13.30;99.90
25554;DHT22;13446;50.926;5.332;2023-04-01T14:00:37;13.20;99.90
25554;DHT22;13446;50.926;5.332;2023-04-01T14:05:53;13.20;99.90
25554;DHT22;13446;50.926;5.332;2023-04-01T14:24:06;13.50;99.90
25554;DHT22;13446;50.926;5.332;2023-04-01T14:31:34;13.20;99.90
25554;DHT22;13446;50.926;5.332;2023-04-01T14:36:41;13.10;99.90
25554;DHT22;13446;50.926;5.332;2023-04-01T14:44:36;13.60;99.90
25554;DHT22;13446;50.926;5.332;2023-04-01T14:47:11;13.60;99.90
25554;DHT22;13446;50.926;5.332;2023-04-01T14:49:48;13.70;99.90
25554;DHT22;13446;50.926;5.332;2023-04-01T14:52:30;13.60;99.90
25554;DHT22;13446;50.926;5.332;2023-04-01T14:54:57;13.60;99.90
25554;DHT22;13446;50.926;5.332;2023-04-01T14:57:24;13.80;99.90
25554;DHT22;13446;50.926;5.332;2023-04-01T15:00:01;13.50;99.90
25554;DHT22;13446;50.926;5.332;2023-04-01T15:04:54;13.40;99.90
25554;DHT22;13446;50.926;5.332;2023-04-01T15:12:50;12.90;99.90
25554;DHT22;13446;50.926;5.332;2023-04-01T15:18:25;13.00;99.90
25554;DHT22;13446;50.926;5.332;2023-04-01T15:20:45;13.10;99.90
25554;DHT22;13446;50.926;5.332;2023-04-01T15:30:52;13.10;99.90
25554;DHT22;13446;50.926;5.332;2023-04-01T15:33:30;13.10;99.90
25554;DHT22;13446;50.926;5.332;2023-04-01T15:38:44;13.00;99.90
25554;DHT22;13446;50.926;5.332;2023-04-01T15:43:45;13.20;99.90
25554;DHT22;13446;50.926;5.332;2023-04-01T15:56:45;13.00;99.90
25554;DHT22;13446;50.926;5.332;2023-04-01T16:02:17;13.20;99.90
25554;DHT22;13446;50.926;5.332;2023-04-01T16:04:50;13.20;99.90
25554;DHT22;13446;50.926;5.332;2023-04-01T16:10:09;13.20;99.90
25554;DHT22;13446;50.926;5.332;2023-04-01T16:12:46;13.50;99.90
25554;DHT22;13446;50.926;5.332;2023-04-01T16:15:22;13.60;99.90
25554;DHT22;13446;50.926;5.332;2023-04-01T16:20:44;13.40;99.90
25554;DHT22;13446;50.926;5.332;2023-04-01T16:25:51;13.00;99.90
25554;DHT22;13446;50.926;5.332;2023-04-01T16:33:46;12.70;99.90
25554;DHT22;13446;50.926;5.332;2023-04-01T16:36:28;12.90;99.90
25554;DHT22;13446;50.926;5.332;2023-04-01T16:39:03;12.80;99.90
25554;DHT22;13446;50.926;5.332;2023-04-01T16:41:31;12.80;99.90
25554;DHT22;13446;50.926;5.332;2023-04-01T16:44:08;12.70;99.90
25554;DHT22;13446;50.926;5.332;2023-04-01T16:54:36;12.40;99.90
25554;DHT22;13446;50.926;5.332;2023-04-01T17:00:09;12.30;99.90
25554;DHT22;13446;50.926;5.332;2023-04-01T17:02:43;12.30;99.90
25554;DHT22;13446;50.926;5.332;2023-04-01T17:05:11;12.30;99.90
25554;DHT22;13446;50.926;5.332;2023-04-01T17:10:15;12.10;99.90
25554;DHT22;13446;50.926;5.332;2023-04-01T17:17:43;11.90;99.90
25554;DHT22;13446;50.926;5.332;2023-04-01T17:23:12;12.00;99.90
25554;DHT22;13446;50.926;5.332;2023-04-01T17:25:52;12.00;99.90
25554;DHT22;13446;50.926;5.332;2023-04-01T17:42:36;11.80;99.90
25554;DHT22;13446;50.926;5.332;2023-04-01T17:44:33;11.70;99.90
25554;DHT22;13446;50.926;5.332;2023-04-01T17:47:04;11.60;99.90
25554;DHT22;13446;50.926;5.332;2023-04-01T17:49:38;11.50;99.90
25554;DHT22;13446;50.926;5.332;2023-04-01T17:54:54;11.40;99.90
25554;DHT22;13446;50.926;5.332;2023-04-01T17:58:22;11.40;99.90
25554;DHT22;13446;50.926;5.332;2023-04-01T18:00:18;11.50;99.90
25554;DHT22;13446;50.926;5.332;2023-04-01T18:07:59;11.40;99.90
25554;DHT22;13446;50.926;5.332;2023-04-01T18:15:42;11.50;99.90
25554;DHT22;13446;50.926;5.332;2023-04-01T18:20:54;11.30;99.90
25554;DHT22;13446;50.926;5.332;2023-04-01T18:25:47;11.20;99.90
25554;DHT22;13446;50.926;5.332;2023-04-01T18:30:39;11.20;99.90
25554;DHT22;13446;50.926;5.332;2023-04-01T18:36:03;11.30;99.90
25554;DHT22;13446;50.926;5.332;2023-04-01T18:38:34;11.20;99.90
25554;DHT22;13446;50.926;5.332;2023-04-01T18:46:19;11.40;99.90
25554;DHT22;13446;50.926;5.332;2023-04-01T18:51:43;11.40;99.90
25554;DHT22;13446;50.926;5.332;2023-04-01T18:56:43;11.30;99.90
25554;DHT22;13446;50.926;5.332;2023-04-01T18:59:11;11.40;99.90
25554;DHT22;13446;50.926;5.332;2023-04-01T19:07:00;11.40;99.90
25554;DHT22;13446;50.926;5.332;2023-04-01T19:17:10;11.20;99.90
25554;DHT22;13446;50.926;5.332;2023-04-01T19:19:52;11.20;99.90
25554;DHT22;13446;50.926;5.332;2023-04-01T19:22:22;11.30;99.90
25554;DHT22;13446;50.926;5.332;2023-04-01T19:27:50;11.30;99.90
25554;DHT22;13446;50.926;5.332;2023-04-01T19:32:49;11.20;99.90
25554;DHT22;13446;50.926;5.332;2023-04-01T19:37:57;11.40;99.90
25554;DHT22;13446;50.926;5.332;2023-04-01T19:43:00;11.30;99.90
25554;DHT22;13446;50.926;5.332;2023-04-01T19:45:41;11.30;99.90
25554;DHT22;13446;50.926;5.332;2023-04-01T19:50:49;11.20;99.90
25554;DHT22;13446;50.926;5.332;2023-04-01T19:53:39;11.20;99.90
25554;DHT22;13446;50.926;5.332;2023-04-01T19:56:21;11.20;99.90
25554;DHT22;13446;50.926;5.332;2023-04-01T20:04:03;11.20;99.90
25554;DHT22;13446;50.926;5.332;2023-04-01T20:14:18;11.30;99.90
25554;DHT22;13446;50.926;5.332;2023-04-01T20:16:49;11.30;99.90
25554;DHT22;13446;50.926;5.332;2023-04-01T20:19:25;11.30;99.90
25554;DHT22;13446;50.926;5.332;2023-04-01T20:21:52;11.30;99.90
25554;DHT22;13446;50.926;5.332;2023-04-01T20:24:26;11.30;99.90
25554;DHT22;13446;50.926;5.332;2023-04-01T20:52:53;11.30;99.90
25554;DHT22;13446;50.926;5.332;2023-04-01T21:00:27;11.10;99.90
25554;DHT22;13446;50.926;5.332;2023-04-01T21:05:26;11.20;99.90
25554;DHT22;13446;50.926;5.332;2023-04-01T21:07:58;11.20;99.90
25554;DHT22;13446;50.926;5.332;2023-04-01T21:11:12;11.20;99.90
25554;DHT22;13446;50.926;5.332;2023-04-01T21:13:22;11.40;99.90
25554;DHT22;13446;50.926;5.332;2023-04-01T21:31:40;11.30;99.90
25554;DHT22;13446;50.926;5.332;2023-04-01T21:42:05;11.20;99.90
25554;DHT22;13446;50.926;5.332;2023-04-01T22:00:24;10.90;99.90
25554;DHT22;13446;50.926;5.332;2023-04-01T22:05:36;11.00;99.90
25554;DHT22;13446;50.926;5.332;2023-04-01T22:08:15;10.90;99.90
25554;DHT22;13446;50.926;5.332;2023-04-01T22:10:44;10.80;99.90
25554;DHT22;13446;50.926;5.332;2023-04-01T22:13:20;10.80;99.90
25554;DHT22;13446;50.926;5.332;2023-04-01T22:18:38;10.90;99.90
25554;DHT22;13446;50.926;5.332;2023-04-01T22:26:05;10.90;99.90
25554;DHT22;13446;50.926;5.332;2023-04-01T22:28:41;10.80;99.90
25554;DHT22;13446;50.926;5.332;2023-04-01T22:31:12;10.70;99.90
25554;DHT22;13446;50.926;5.332;2023-04-01T22:33:52;10.70;99.90
25554;DHT22;13446;50.926;5.332;2023-04-01T22:36:29;10.70;99.90
25554;DHT22;13446;50.926;5.332;2023-04-01T22:39:03;10.80;99.90
25554;DHT22;13446;50.926;5.332;2023-04-01T22:41:38;10.80;99.90
25554;DHT22;13446;50.926;5.332;2023-04-01T22:44:17;10.80;99.90
25554;DHT22;13446;50.926;5.332;2023-04-01T22:56:52;10.40;99.90
25554;DHT22;13446;50.926;5.332;2023-04-01T22:59:19;10.40;99.90
25554;DHT22;13446;50.926;5.332;2023-04-01T23:01:49;10.40;99.90
25554;DHT22;13446;50.926;5.332;2023-04-01T23:04:16;10.40;99.90
25554;DHT22;13446;50.926;5.332;2023-04-01T23:06:48;10.40;99.90
25554;DHT22;13446;50.926;5.332;2023-04-01T23:09:23;10.30;99.90
25554;DHT22;13446;50.926;5.332;2023-04-01T23:12:03;10.30;99.90
25554;DHT22;13446;50.926;5.332;2023-04-01T23:14:34;10.20;99.90
25554;DHT22;13446;50.926;5.332;2023-04-01T23:24:45;10.30;99.90
25554;DHT22;13446;50.926;5.332;2023-04-01T23:29:41;10.20;99.90
25554;DHT22;13446;50.926;5.332;2023-04-01T23:32:18;10.20;99.90
25554;DHT22;13446;50.926;5.332;2023-04-01T23:34:47;10.30;99.90
25554;DHT22;13446;50.926;5.332;2023-04-01T23:37:14;10.30;99.90
25554;DHT22;13446;50.926;5.332;2023-04-01T23:39:46;10.20;99.90
25554;DHT22;13446;50.926;5.332;2023-04-01T23:42:23;10.20;99.90
25554;DHT22;13446;50.926;5.332;2023-04-01T23:44:50;10.10;99.90
25554;DHT22;13446;50.926;5.332;2023-04-01T23:47:17;10.00;99.90
25554;DHT22;13446;50.926;5.332;2023-04-01T23:49:47;10.10;99.90
25554;DHT22;13446;50.926;5.332;2023-04-01T23:52:17;10.10;99.90
25554;DHT22;13446;50.926;5.332;2023-04-01T23:54:49;10.20;99.90
25554;DHT22;13446;50.926;5.332;2023-04-01T23:57:26;10.10;99.90
